»·PEaware :: N142AP L52-L88

N142AP :: L52-L88

FLIGHT INFORMATION

Flight Status: Arrived
Operator: Privately registered:
United States
More flights under this callsign
Pilot: Hendrik S. (17810)
Aircraft: CESSNA 172 SKYHAWK
(C172)
More flights by this aircraft type
Origin: L52 Oceano Co
United States
Destination: L88 New Cuyama
United States
More flights between these airports :: More routes between these airports
Route:
File this flight plan on PilotEdge
Remarks:
Altitude:
(Current/Filed)
7,500ft
Speed:
(Current/Filed)
100kts
Departed: 05-Jan-18 03:29 PM
Arrived: 05-Jan-18 04:01 PM
Distance/Time
Traveled:
47nm/0:32
Distance/Time
To Go:
Arrived

Flight Plot

Page will automatically refresh every two minutes.


Map Options




Map Legend


Flown Route
Filed Route
Departure Airport
Arrival Airport
Navaid (VOR, NDB)
Fix

Horizontal Profiles

Position Reports

Time Latitude Longitude Heading Altitude Ground
Speed
05-Jan-18 15:19 35.103547 -120.624273 214 15ft 0kts
05-Jan-18 15:20 35.103547 -120.624273 214 15ft 0kts
05-Jan-18 15:21 35.103547 -120.624273 214 15ft 0kts
05-Jan-18 15:22 35.103547 -120.624273 214 15ft 0kts
05-Jan-18 15:23 35.103547 -120.624273 214 15ft 0kts
05-Jan-18 15:24 35.103547 -120.624273 214 15ft 0kts
05-Jan-18 15:25 35.103547 -120.624273 214 15ft 0kts
05-Jan-18 15:26 35.103467 -120.624382 257 15ft 4kts
05-Jan-18 15:27 35.103386 -120.625253 213 14ft 2kts
05-Jan-18 15:28 35.102152 -120.624321 125 14ft 1kts
05-Jan-18 15:29 35.100468 -120.621186 119 17ft 12kts
05-Jan-18 15:30 35.099644 -120.619380 26 17ft 0kts
05-Jan-18 15:31 35.099644 -120.619380 26 17ft 0kts
05-Jan-18 15:32 35.099644 -120.619380 25 17ft 0kts
05-Jan-18 15:33 35.099697 -120.619348 25 17ft 0kts
05-Jan-18 15:34 35.100022 -120.619442 302 17ft 0kts
05-Jan-18 15:35 35.107025 -120.630913 306 382ft 68kts
05-Jan-18 15:36 35.101442 -120.645777 192 1038ft 86kts
05-Jan-18 15:37 35.085979 -120.623756 91 1014ft 119kts
05-Jan-18 15:38 35.082070 -120.582818 92 1076ft 124kts
05-Jan-18 15:39 35.081189 -120.540650 85 1048ft 124kts
05-Jan-18 15:40 35.077416 -120.499291 109 1522ft 124kts
05-Jan-18 15:41 35.067716 -120.464327 103 2383ft 94kts
05-Jan-18 15:42 35.063916 -120.433158 89 3026ft 94kts
05-Jan-18 15:43 35.060914 -120.401268 93 3637ft 95kts
05-Jan-18 15:44 35.058612 -120.369140 98 4224ft 95kts
05-Jan-18 15:45 35.053452 -120.341621 106 4707ft 96kts
05-Jan-18 15:46 35.046828 -120.309590 101 5222ft 98kts
05-Jan-18 15:47 35.042789 -120.276842 99 5729ft 98kts
05-Jan-18 15:48 35.037728 -120.244524 101 6216ft 97kts
05-Jan-18 15:49 35.037509 -120.211100 84 6663ft 98kts
05-Jan-18 15:50 35.039576 -120.178190 84 7152ft 96kts
05-Jan-18 15:51 35.041842 -120.146004 84 7641ft 94kts
05-Jan-18 15:52 35.044278 -120.114353 84 8131ft 93kts
05-Jan-18 15:53 35.047112 -120.079793 85 8140ft 115kts
05-Jan-18 15:54 35.048514 -120.040616 88 7646ft 116kts
05-Jan-18 15:55 35.049903 -120.001211 88 7149ft 116kts
05-Jan-18 15:56 35.044203 -119.961923 112 6555ft 118kts
05-Jan-18 15:57 35.030635 -119.925024 119 5846ft 122kts
05-Jan-18 15:58 35.016601 -119.889435 118 5175ft 118kts
05-Jan-18 15:59 35.003943 -119.857131 118 4705ft 113kts
05-Jan-18 16:00 34.991071 -119.825340 119 4239ft 112kts
05-Jan-18 16:01 34.975874 -119.792201 122 3737ft 111kts
05-Jan-18 16:02 34.958941 -119.761039 131 3262ft 111kts
05-Jan-18 16:03 34.943687 -119.730728 117 3103ft 103kts
05-Jan-18 16:04 34.938989 -119.697859 115 2997ft 105kts
05-Jan-18 16:05 34.926249 -119.668722 138 2893ft 93kts
05-Jan-18 16:06 34.932157 -119.665909 292 2492ft 74kts
05-Jan-18 16:07 34.939404 -119.684296 302 2183ft 38kts
05-Jan-18 16:08 34.941691 -119.689896 295 2159ft 19kts
05-Jan-18 16:09 34.942581 -119.691107 307 2155ft 0kts
05-Jan-18 16:10 34.943358 -119.690755 112 2154ft 0kts
05-Jan-18 16:11 34.943358 -119.690755 112 2154ft 0kts
05-Jan-18 16:12 34.943358 -119.690755 112 2154ft 0kts
05-Jan-18 16:13 34.943358 -119.690755 112 2154ft 0kts
05-Jan-18 16:14 34.943358 -119.690755 112 2154ft 0kts
05-Jan-18 16:15 34.943358 -119.690755 112 2154ft 0kts
05-Jan-18 16:16 34.943358 -119.690755 112 2154ft 0kts
05-Jan-18 16:17 34.943358 -119.690755 112 2154ft 0kts
05-Jan-18 16:18 34.943358 -119.690755 112 2154ft 0kts
05-Jan-18 16:19 34.943358 -119.690755 112 2154ft 0kts
05-Jan-18 16:20 34.943358 -119.690755 112 2154ft 0kts
05-Jan-18 16:21 34.943358 -119.690755 112 2154ft 0kts

Navigation Log

Ident Type
Flight plan parsing failed, navigation log unavailable